createdAt,value
2022-10-14T00:01:21.044Z,13.10
2022-10-14T00:03:49.638Z,13.10
2022-10-14T00:06:19.519Z,13.10
2022-10-14T00:08:48.615Z,13.10
2022-10-14T00:11:21.415Z,13.10
2022-10-14T00:13:49.932Z,13.10
2022-10-14T00:16:20.076Z,13.10
2022-10-14T00:18:48.682Z,13.10
2022-10-14T00:21:18.074Z,13.10
2022-10-14T00:23:46.983Z,13.10
2022-10-14T00:26:22.353Z,13.10
2022-10-14T00:28:51.357Z,13.10
2022-10-14T00:31:19.968Z,13.10
2022-10-14T00:33:48.601Z,13.10
2022-10-14T00:36:18.437Z,13.10
2022-10-14T00:38:46.715Z,13.10
2022-10-14T00:41:17.622Z,13.10
2022-10-14T00:44:47.655Z,13.10
2022-10-14T00:47:15.550Z,13.10
2022-10-14T00:49:45.747Z,13.10
2022-10-14T00:52:18.730Z,13.10
2022-10-14T00:54:51.012Z,13.10
2022-10-14T00:57:19.814Z,13.10
2022-10-14T00:59:50.360Z,13.10
2022-10-14T01:02:18.415Z,13.10
2022-10-14T01:04:47.429Z,13.10
2022-10-14T01:07:22.924Z,13.10
2022-10-14T01:09:56.740Z,13.10
2022-10-14T01:12:31.854Z,13.10
2022-10-14T01:15:08.320Z,13.10
2022-10-14T01:17:45.661Z,13.10
2022-10-14T01:20:46.953Z,13.10
2022-10-14T01:23:43.131Z,13.10
2022-10-14T01:26:25.966Z,13.10
2022-10-14T01:29:10.629Z,13.10
2022-10-14T01:31:46.268Z,13.20
2022-10-14T01:34:19.808Z,13.20
2022-10-14T01:36:52.195Z,13.20
2022-10-14T01:39:25.272Z,13.20
2022-10-14T01:41:57.204Z,13.20
2022-10-14T01:44:27.597Z,13.20
2022-10-14T01:46:58.771Z,13.20
2022-10-14T01:49:30.881Z,13.20
2022-10-14T01:52:06.167Z,13.20
2022-10-14T01:54:41.497Z,13.20
2022-10-14T01:57:12.479Z,13.20
2022-10-14T01:59:42.545Z,13.20
2022-10-14T02:02:13.998Z,13.20
2022-10-14T02:04:42.240Z,13.20
2022-10-14T02:07:16.557Z,13.20
2022-10-14T02:09:55.879Z,13.20
2022-10-14T02:12:32.859Z,13.20
2022-10-14T02:15:11.716Z,13.20
2022-10-14T02:17:50.209Z,13.20
2022-10-14T02:20:35.176Z,13.20
2022-10-14T02:23:08.160Z,13.20
2022-10-14T02:25:39.652Z,13.20
2022-10-14T02:28:10.127Z,13.20
2022-10-14T02:30:42.805Z,13.20
2022-10-14T02:33:13.535Z,13.20
2022-10-14T02:35:43.254Z,13.10
2022-10-14T02:38:11.354Z,13.10
2022-10-14T02:40:43.698Z,13.20
2022-10-14T02:43:12.863Z,13.20
2022-10-14T02:45:42.835Z,13.20
2022-10-14T02:48:13.024Z,13.20
2022-10-14T02:50:42.386Z,13.20
2022-10-14T02:53:15.521Z,13.20
2022-10-14T02:55:43.649Z,13.20
2022-10-14T02:58:11.821Z,13.20
2022-10-14T03:00:40.151Z,13.20
2022-10-14T03:03:08.264Z,13.20
2022-10-14T03:05:38.007Z,13.30
2022-10-14T03:08:06.431Z,13.20
2022-10-14T03:10:34.562Z,13.20
2022-10-14T03:13:02.674Z,13.20
2022-10-14T03:15:30.797Z,13.20
2022-10-14T03:17:58.982Z,13.20
2022-10-14T03:20:28.297Z,13.10
2022-10-14T03:22:57.992Z,13.10
2022-10-14T03:25:26.129Z,13.20
2022-10-14T03:27:54.845Z,13.10
2022-10-14T03:30:22.974Z,13.10
2022-10-14T03:32:51.412Z,13.10
2022-10-14T03:35:19.817Z,13.10
2022-10-14T03:37:48.161Z,13.10
2022-10-14T03:40:17.919Z,13.10
2022-10-14T03:42:46.104Z,13.10
2022-10-14T03:45:14.453Z,13.20
2022-10-14T03:47:42.720Z,13.20
2022-10-14T03:50:11.285Z,13.10
2022-10-14T03:52:44.894Z,13.10
2022-10-14T03:55:14.762Z,13.10
2022-10-14T03:57:44.427Z,13.10
2022-10-14T04:00:14.116Z,13.10
2022-10-14T04:02:42.426Z,13.10
2022-10-14T04:05:11.303Z,13.10
2022-10-14T04:07:39.175Z,13.10
2022-10-14T04:10:08.978Z,13.10
2022-10-14T04:12:37.454Z,13.10
2022-10-14T04:15:08.882Z,13.10
2022-10-14T04:17:37.249Z,13.10
2022-10-14T04:20:23.282Z,13.10
2022-10-14T04:22:52.531Z,13.10
2022-10-14T04:25:20.780Z,13.10
2022-10-14T04:27:48.954Z,13.10
2022-10-14T04:30:18.738Z,13.10
2022-10-14T04:32:47.550Z,13.10
2022-10-14T04:35:15.770Z,13.10
2022-10-14T04:37:43.866Z,13.10
2022-10-14T04:40:12.566Z,13.10
2022-10-14T04:42:40.926Z,13.10
2022-10-14T04:45:09.867Z,13.10
2022-10-14T04:47:42.843Z,13.10
2022-10-14T04:50:13.121Z,13.10
2022-10-14T04:52:41.699Z,13.10
2022-10-14T04:55:10.382Z,13.10
2022-10-14T04:57:40.389Z,13.10
2022-10-14T05:00:10.059Z,13.10
2022-10-14T05:02:39.752Z,13.10
2022-10-14T05:05:08.423Z,13.10
2022-10-14T05:07:37.143Z,13.10
2022-10-14T05:10:06.313Z,13.10
2022-10-14T05:12:34.396Z,13.10
2022-10-14T05:15:03.263Z,13.10
2022-10-14T05:17:31.946Z,13.20
2022-10-14T05:20:21.736Z,13.20
2022-10-14T05:22:49.874Z,13.20
2022-10-14T05:25:18.170Z,13.20
2022-10-14T05:27:46.864Z,13.20
2022-10-14T05:30:15.256Z,13.20
2022-10-14T05:32:43.326Z,13.20
2022-10-14T05:35:13.000Z,13.20
2022-10-14T05:37:41.528Z,13.20
2022-10-14T05:40:11.687Z,13.30
2022-10-14T05:42:39.853Z,13.30
2022-10-14T05:45:08.723Z,13.30
2022-10-14T05:47:36.958Z,13.30
2022-10-14T05:50:05.667Z,13.30
2022-10-14T05:52:35.739Z,13.30
2022-10-14T05:55:04.609Z,13.30
2022-10-14T05:57:33.631Z,13.30
2022-10-14T06:00:01.832Z,13.20
2022-10-14T06:02:29.950Z,13.20
2022-10-14T06:04:58.488Z,13.20
2022-10-14T06:07:26.691Z,13.20
2022-10-14T06:09:56.358Z,13.20
2022-10-14T06:12:24.829Z,13.20
2022-10-14T06:14:53.129Z,13.20
2022-10-14T06:17:21.227Z,13.20
2022-10-14T06:19:50.511Z,13.20
2022-10-14T06:22:18.518Z,13.20
2022-10-14T06:24:46.711Z,13.20
2022-10-14T06:27:16.048Z,13.20
2022-10-14T06:29:44.068Z,13.20
2022-10-14T06:32:11.834Z,13.30
2022-10-14T06:34:40.248Z,13.20
2022-10-14T06:37:08.314Z,13.20
2022-10-14T06:39:36.085Z,13.20
2022-10-14T06:42:04.150Z,13.20
2022-10-14T06:44:33.775Z,13.20
2022-10-14T06:47:01.995Z,13.30
2022-10-14T06:49:30.083Z,13.30
2022-10-14T06:51:58.773Z,13.30
2022-10-14T06:54:26.965Z,13.30
2022-10-14T06:56:55.423Z,13.30
2022-10-14T06:59:23.764Z,13.30
2022-10-14T07:01:54.012Z,13.40
2022-10-14T07:04:24.469Z,13.40
2022-10-14T07:06:53.205Z,13.40
2022-10-14T07:09:21.497Z,13.40
2022-10-14T07:11:50.003Z,13.50
2022-10-14T07:14:18.314Z,13.50
2022-10-14T07:16:46.494Z,13.40
2022-10-14T07:19:17.411Z,13.40
2022-10-14T07:21:46.610Z,13.50
2022-10-14T07:24:15.249Z,13.50
2022-10-14T07:26:43.554Z,13.50
2022-10-14T07:29:11.883Z,13.50
2022-10-14T07:31:40.051Z,13.50
2022-10-14T07:34:08.284Z,13.60
2022-10-14T07:36:38.678Z,13.60
2022-10-14T07:39:07.278Z,13.60
2022-10-14T07:41:36.208Z,13.60
2022-10-14T07:44:08.836Z,13.60
2022-10-14T07:46:40.215Z,13.70
2022-10-14T07:49:12.005Z,13.70
2022-10-14T07:51:45.007Z,13.70
2022-10-14T07:54:16.399Z,13.70
2022-10-14T07:56:45.799Z,13.70
2022-10-14T07:59:14.179Z,13.70
2022-10-14T08:01:43.381Z,13.70
2022-10-14T08:04:12.389Z,13.70
2022-10-14T08:06:42.206Z,13.70
2022-10-14T08:09:13.786Z,13.80
2022-10-14T08:11:42.263Z,13.80
2022-10-14T08:14:10.796Z,13.80
2022-10-14T08:16:40.283Z,13.80
2022-10-14T08:19:14.876Z,13.80
2022-10-14T08:21:44.987Z,13.80
2022-10-14T08:24:13.600Z,13.80
2022-10-14T08:26:50.830Z,13.90
2022-10-14T08:29:19.437Z,13.90
2022-10-14T08:31:48.014Z,13.90
2022-10-14T08:34:16.339Z,14.00
2022-10-14T08:36:45.972Z,14.00
2022-10-14T08:39:15.552Z,14.10
2022-10-14T08:42:12.293Z,14.10
2022-10-14T08:44:46.162Z,14.20
2022-10-14T08:47:16.666Z,14.20
2022-10-14T08:49:56.078Z,14.30
2022-10-14T08:52:33.706Z,14.20
2022-10-14T08:55:16.029Z,14.20
2022-10-14T08:57:52.328Z,14.20
2022-10-14T09:00:21.823Z,14.20
2022-10-14T09:02:52.694Z,14.30
2022-10-14T09:05:24.163Z,14.30
2022-10-14T09:07:56.837Z,14.30
2022-10-14T09:10:32.418Z,14.30
2022-10-14T09:13:10.197Z,14.30
2022-10-14T09:15:45.515Z,14.40
2022-10-14T09:25:12.759Z,14.40
2022-10-14T09:27:49.923Z,14.40
2022-10-14T09:30:33.199Z,14.50
2022-10-14T09:33:06.648Z,14.50
2022-10-14T09:35:38.655Z,14.50
2022-10-14T09:38:11.965Z,14.60
2022-10-14T09:44:53.554Z,14.60
2022-10-14T09:47:57.138Z,14.60
2022-10-14T09:51:03.231Z,14.60
2022-10-14T09:53:43.723Z,14.60
2022-10-14T09:56:38.999Z,14.60
2022-10-14T09:59:18.307Z,14.70
2022-10-14T10:01:52.402Z,14.70
2022-10-14T10:04:39.071Z,14.70
2022-10-14T10:07:24.493Z,14.80
2022-10-14T10:09:56.812Z,14.80
2022-10-14T10:12:34.095Z,14.90
2022-10-14T10:15:06.680Z,14.90
2022-10-14T10:17:36.846Z,14.90
2022-10-14T10:20:43.674Z,15.00
2022-10-14T10:23:27.253Z,15.00
2022-10-14T10:25:59.252Z,15.00
2022-10-14T10:28:31.816Z,15.10
2022-10-14T10:31:15.189Z,15.20
2022-10-14T10:33:51.830Z,15.30
2022-10-14T10:36:30.096Z,15.30
2022-10-14T10:39:07.157Z,15.20
2022-10-14T10:41:54.123Z,15.30
2022-10-14T10:44:52.671Z,15.30
2022-10-14T10:47:49.326Z,15.30
2022-10-14T10:50:30.425Z,15.20
2022-10-14T10:53:15.768Z,15.30
2022-10-14T10:55:54.508Z,15.30
2022-10-14T10:58:46.172Z,15.30
2022-10-14T11:01:37.020Z,15.30
2022-10-14T11:04:21.914Z,15.40
2022-10-14T11:07:24.026Z,15.40
2022-10-14T11:10:25.668Z,15.30
2022-10-14T11:13:12.414Z,15.30
2022-10-14T11:15:49.695Z,15.30
2022-10-14T11:18:28.953Z,15.20
2022-10-14T11:21:11.148Z,15.20
2022-10-14T11:24:01.006Z,15.10
2022-10-14T11:26:53.785Z,15.10
2022-10-14T11:29:58.035Z,15.10
2022-10-14T11:32:35.532Z,15.10
2022-10-14T11:35:21.505Z,15.00
2022-10-14T11:38:06.303Z,15.00
2022-10-14T11:40:43.219Z,15.10
2022-10-14T11:43:23.706Z,15.10
2022-10-14T11:45:57.631Z,15.10
2022-10-14T11:48:35.606Z,15.20
2022-10-14T11:51:23.405Z,15.20
2022-10-14T11:54:01.286Z,15.20
2022-10-14T11:56:45.740Z,15.20
2022-10-14T11:59:36.667Z,15.20
2022-10-14T12:02:16.001Z,15.20
2022-10-14T12:04:51.242Z,15.10
2022-10-14T12:07:25.166Z,15.10
2022-10-14T12:09:59.974Z,15.10
2022-10-14T12:12:30.700Z,14.90
2022-10-14T12:15:05.475Z,14.80
2022-10-14T12:17:38.718Z,14.80
2022-10-14T12:20:20.951Z,14.70
2022-10-14T12:22:51.495Z,14.60
2022-10-14T12:25:23.740Z,14.60
2022-10-14T12:27:52.805Z,14.60
2022-10-14T12:30:34.409Z,14.60
2022-10-14T12:33:05.345Z,14.70
2022-10-14T12:35:59.247Z,14.60
2022-10-14T12:38:29.583Z,14.60
2022-10-14T12:41:24.444Z,14.50
2022-10-14T12:44:02.382Z,14.40
2022-10-14T12:46:32.867Z,14.40
2022-10-14T12:49:01.818Z,14.40
2022-10-14T12:51:46.176Z,14.30
2022-10-14T12:54:37.905Z,14.30
2022-10-14T12:57:19.174Z,14.30
2022-10-14T12:59:51.319Z,14.30
2022-10-14T13:02:32.570Z,14.40
2022-10-14T13:05:08.115Z,14.30
2022-10-14T13:07:49.280Z,14.30
2022-10-14T13:10:49.757Z,14.30
2022-10-14T13:13:54.931Z,14.40
2022-10-14T13:17:07.790Z,14.40
2022-10-14T13:19:45.463Z,14.40
2022-10-14T13:22:43.481Z,14.40
2022-10-14T13:25:56.036Z,14.40
2022-10-14T13:28:39.574Z,14.40
2022-10-14T13:31:18.845Z,14.40
2022-10-14T13:33:54.701Z,14.40
2022-10-14T13:36:34.594Z,14.40
2022-10-14T13:39:05.792Z,14.40
2022-10-14T13:41:34.664Z,14.50
2022-10-14T13:44:17.319Z,14.50
2022-10-14T13:46:48.411Z,14.50
2022-10-14T13:49:20.558Z,14.50
2022-10-14T13:52:00.586Z,14.50
2022-10-14T13:54:31.446Z,14.60
2022-10-14T14:00:37.893Z,14.60
2022-10-14T14:02:44.237Z,14.60
2022-10-14T14:05:17.936Z,14.50
2022-10-14T14:11:03.697Z,14.50
2022-10-14T14:13:32.359Z,14.50
2022-10-14T14:16:06.106Z,14.40
2022-10-14T14:18:56.291Z,14.40
2022-10-14T14:21:33.365Z,14.40
2022-10-14T14:24:22.585Z,14.40
2022-10-14T14:26:55.705Z,14.40
2022-10-14T14:29:28.590Z,14.40
2022-10-14T14:32:07.938Z,14.50
2022-10-14T14:34:40.914Z,14.50
2022-10-14T14:40:06.599Z,14.60
2022-10-14T14:42:38.438Z,14.50
2022-10-14T14:45:30.773Z,14.60
2022-10-14T14:48:00.593Z,14.60
2022-10-14T14:50:33.026Z,14.60
2022-10-14T14:53:05.544Z,14.60
2022-10-14T14:56:12.040Z,14.60
2022-10-14T14:58:49.275Z,14.60
2022-10-14T15:01:23.599Z,14.60
2022-10-14T15:04:12.620Z,14.70
2022-10-14T15:06:51.146Z,14.70
2022-10-14T15:12:26.337Z,14.70
2022-10-14T15:15:10.545Z,14.80
2022-10-14T15:17:43.398Z,14.80
2022-10-14T15:20:32.105Z,14.80
2022-10-14T15:23:03.683Z,14.80
2022-10-14T15:25:32.702Z,14.80
2022-10-14T15:28:03.807Z,14.80
2022-10-14T15:30:38.581Z,14.80
2022-10-14T15:33:16.509Z,14.80
2022-10-14T15:35:46.826Z,14.80
2022-10-14T15:38:17.667Z,14.80
2022-10-14T15:40:46.837Z,14.80
2022-10-14T15:43:20.926Z,14.90
2022-10-14T15:46:12.907Z,14.90
2022-10-14T15:48:44.486Z,14.90
2022-10-14T15:51:16.621Z,14.90
2022-10-14T15:53:45.123Z,14.90
2022-10-14T15:56:13.537Z,14.90
2022-10-14T15:58:43.238Z,14.90
2022-10-14T16:01:19.576Z,14.90
2022-10-14T16:03:48.236Z,14.90
2022-10-14T16:06:17.051Z,14.90
2022-10-14T16:08:46.836Z,14.80
2022-10-14T16:11:20.894Z,14.80
2022-10-14T16:13:50.663Z,14.80
2022-10-14T16:16:23.601Z,14.80
2022-10-14T16:18:53.958Z,14.80
2022-10-14T16:21:22.355Z,14.80
2022-10-14T16:23:52.708Z,14.80
2022-10-14T16:26:21.030Z,14.80
2022-10-14T16:28:51.014Z,14.80
2022-10-14T16:31:21.371Z,14.80
2022-10-14T16:33:51.168Z,14.80
2022-10-14T16:36:46.468Z,14.80
2022-10-14T16:39:19.093Z,14.80
2022-10-14T16:41:48.455Z,14.80
2022-10-14T16:47:19.527Z,14.80
2022-10-14T16:50:02.232Z,14.80
2022-10-14T16:53:09.091Z,14.80
2022-10-14T16:55:37.805Z,14.70
2022-10-14T16:58:05.979Z,14.80
2022-10-14T17:00:35.854Z,14.80
2022-10-14T17:03:04.356Z,14.80
2022-10-14T17:05:32.418Z,14.80
2022-10-14T17:08:01.037Z,14.80
2022-10-14T17:10:29.195Z,14.80
2022-10-14T17:12:58.143Z,14.80
2022-10-14T17:15:26.378Z,14.80
2022-10-14T17:17:56.401Z,14.80
2022-10-14T17:20:26.206Z,14.80
2022-10-14T17:22:56.998Z,14.80
2022-10-14T17:25:29.118Z,14.80
2022-10-14T17:27:57.916Z,14.80
2022-10-14T17:30:27.657Z,14.80
2022-10-14T17:32:57.284Z,14.80
2022-10-14T17:35:25.471Z,14.80
2022-10-14T17:37:55.071Z,14.80
2022-10-14T17:40:23.280Z,14.80
2022-10-14T17:42:51.643Z,14.80
2022-10-14T17:45:20.345Z,14.80
2022-10-14T17:47:48.730Z,14.80
2022-10-14T17:50:21.255Z,14.80
2022-10-14T17:52:53.291Z,14.80
2022-10-14T17:55:22.084Z,14.80
2022-10-14T17:57:51.173Z,14.80
2022-10-14T18:00:19.621Z,14.80
2022-10-14T18:02:48.113Z,14.80
2022-10-14T18:05:16.513Z,14.80
2022-10-14T18:07:46.395Z,14.90
2022-10-14T18:10:14.581Z,14.90
2022-10-14T18:12:42.480Z,14.90
2022-10-14T18:15:10.878Z,14.90
2022-10-14T18:17:39.359Z,14.90
2022-10-14T18:20:08.204Z,14.90
2022-10-14T18:22:36.227Z,14.90
2022-10-14T18:25:06.651Z,14.90
2022-10-14T18:27:35.162Z,14.80
2022-10-14T18:30:03.374Z,14.80
2022-10-14T18:32:31.673Z,14.80
2022-10-14T18:35:02.194Z,14.80
2022-10-14T18:37:30.622Z,14.80
2022-10-14T18:40:00.053Z,14.80
2022-10-14T18:42:29.787Z,14.80
2022-10-14T18:44:59.123Z,14.80
2022-10-14T18:47:27.292Z,14.80
2022-10-14T18:49:59.876Z,14.80
2022-10-14T18:52:28.419Z,14.80
2022-10-14T18:54:56.652Z,14.80
2022-10-14T18:57:25.125Z,14.80
2022-10-14T18:59:55.703Z,14.80
2022-10-14T19:02:24.476Z,14.80
2022-10-14T19:04:53.131Z,14.80
2022-10-14T19:07:21.424Z,14.80
2022-10-14T19:09:51.897Z,14.80
2022-10-14T19:12:36.198Z,14.80
2022-10-14T19:15:06.661Z,14.80
2022-10-14T19:17:37.926Z,14.70
2022-10-14T19:20:08.539Z,14.80
2022-10-14T19:22:44.698Z,14.80
2022-10-14T19:25:13.722Z,14.80
2022-10-14T19:27:41.917Z,14.80
2022-10-14T19:30:14.107Z,14.80
2022-10-14T19:32:51.907Z,14.80
2022-10-14T19:35:21.726Z,14.80
2022-10-14T19:37:50.543Z,14.80
2022-10-14T19:40:21.362Z,14.80
2022-10-14T19:42:52.158Z,14.80
2022-10-14T19:45:22.192Z,14.80
2022-10-14T19:47:50.587Z,14.80
2022-10-14T19:50:19.315Z,14.80
2022-10-14T19:52:49.075Z,14.80
2022-10-14T19:55:18.027Z,14.70
2022-10-14T19:57:46.224Z,14.70
2022-10-14T20:00:16.031Z,14.80
2022-10-14T20:02:46.201Z,14.70
2022-10-14T20:05:16.845Z,14.70
2022-10-14T20:07:45.358Z,14.80
2022-10-14T20:10:15.743Z,14.80
2022-10-14T20:12:45.391Z,14.70
2022-10-14T20:15:15.310Z,14.70
2022-10-14T20:17:43.263Z,14.70
2022-10-14T20:20:13.900Z,14.60
2022-10-14T20:22:42.005Z,14.60
2022-10-14T20:25:10.500Z,14.60
2022-10-14T20:27:39.029Z,14.60
2022-10-14T20:30:08.364Z,14.50
2022-10-14T20:32:36.467Z,14.50
2022-10-14T20:35:04.709Z,14.50
2022-10-14T20:37:35.411Z,14.50
2022-10-14T20:40:03.682Z,14.50
2022-10-14T20:42:34.060Z,14.50
2022-10-14T20:45:02.534Z,14.40
2022-10-14T20:47:30.655Z,14.40
2022-10-14T20:49:58.879Z,14.40
2022-10-14T20:52:27.403Z,14.40
2022-10-14T20:54:57.017Z,14.40
2022-10-14T20:57:25.307Z,14.40
2022-10-14T20:59:53.631Z,14.40
2022-10-14T21:02:23.072Z,14.40
2022-10-14T21:04:52.764Z,14.40
2022-10-14T21:07:22.501Z,14.40
2022-10-14T21:09:50.992Z,14.40
2022-10-14T21:12:20.873Z,14.40
2022-10-14T21:14:49.577Z,14.40
2022-10-14T21:17:17.763Z,14.40
2022-10-14T21:19:45.906Z,14.40
2022-10-14T21:22:14.672Z,14.40
2022-10-14T21:24:42.864Z,14.40
2022-10-14T21:27:10.951Z,14.40
2022-10-14T21:29:40.669Z,14.40
2022-10-14T21:32:08.881Z,14.40
2022-10-14T21:34:37.256Z,14.50
2022-10-14T21:37:05.334Z,14.50
2022-10-14T21:39:33.571Z,14.50
2022-10-14T21:42:01.997Z,14.50
2022-10-14T21:44:30.114Z,14.50
2022-10-14T21:46:59.666Z,14.50
2022-10-14T21:49:28.983Z,14.50
2022-10-14T21:51:57.114Z,14.50
2022-10-14T21:54:26.134Z,14.50
2022-10-14T21:56:54.228Z,14.40
2022-10-14T21:59:22.546Z,14.40
2022-10-14T22:01:50.757Z,14.40
2022-10-14T22:04:20.396Z,14.40
2022-10-14T22:06:49.014Z,14.40
2022-10-14T22:09:17.237Z,14.40
2022-10-14T22:11:46.789Z,14.40
2022-10-14T22:14:18.196Z,14.40
2022-10-14T22:16:46.932Z,14.40
2022-10-14T22:19:15.681Z,14.40
2022-10-14T22:21:49.186Z,14.40
2022-10-14T22:24:17.813Z,14.40
2022-10-14T22:26:45.991Z,14.40
2022-10-14T22:29:16.103Z,14.40
2022-10-14T22:31:45.057Z,14.40
2022-10-14T22:34:15.004Z,14.30
2022-10-14T22:36:44.778Z,14.30
2022-10-14T22:39:15.574Z,14.30
2022-10-14T22:41:43.863Z,14.30
2022-10-14T22:44:12.315Z,14.30
2022-10-14T22:46:41.112Z,14.30
2022-10-14T22:49:09.763Z,14.30
2022-10-14T22:51:41.347Z,14.30
2022-10-14T22:54:11.767Z,14.30
2022-10-14T22:56:40.766Z,14.30
2022-10-14T22:59:10.830Z,14.30
2022-10-14T23:01:40.338Z,14.30
2022-10-14T23:04:09.119Z,14.30
2022-10-14T23:06:38.587Z,14.30
2022-10-14T23:09:07.269Z,14.30
2022-10-14T23:11:36.926Z,14.30
2022-10-14T23:14:07.421Z,14.30
2022-10-14T23:16:36.063Z,14.30
2022-10-14T23:19:04.352Z,14.30
2022-10-14T23:21:34.439Z,14.30
2022-10-14T23:24:07.095Z,14.30
2022-10-14T23:26:39.682Z,14.30
2022-10-14T23:29:09.940Z,14.40
2022-10-14T23:31:39.335Z,14.40
2022-10-14T23:34:09.374Z,14.40
2022-10-14T23:36:38.302Z,14.40
2022-10-14T23:39:06.977Z,14.40
2022-10-14T23:41:36.874Z,14.40
2022-10-14T23:44:05.378Z,14.40
2022-10-14T23:46:33.503Z,14.40
2022-10-14T23:49:07.728Z,14.30
2022-10-14T23:51:49.911Z,14.40
2022-10-14T23:54:18.051Z,14.40
2022-10-14T23:56:47.832Z,14.40
2022-10-14T23:59:16.249Z,14.40
